Time,TemperatureF,DewpointF,PressureIn,WindDirection,WindDirectionDegrees,WindSpeedMPH,WindSpeedGustMPH,Humidity,HourlyPrecipIn,Conditions,Clouds,dailyrainin,SoftwareType,DateUTC
2013-02-15 00:00:00,39.7,33.4,30.01,NNW,336,4.0,5.0,78,0.00,,BKN055,0.00,VWS V14.00,2013-02-15 05:00:00,
2013-02-15 00:10:00,39.3,32.7,30.00,North,360,0.0,5.0,77,0.00,,BKN055,0.00,VWS V14.00,2013-02-15 05:10:00,
2013-02-15 00:20:00,38.7,32.4,30.00,North,9,0.0,0.0,78,0.00,,BKN055,0.00,VWS V14.00,2013-02-15 05:20:00,
2013-02-15 00:30:00,38.1,32.2,30.00,North,9,0.0,0.0,79,0.00,,BKN055,0.00,VWS V14.00,2013-02-15 05:30:00,
2013-02-15 00:40:00,37.1,31.8,30.01,North,9,0.0,0.0,81,0.00,,BKN055,0.00,VWS V14.00,2013-02-15 05:40:00,
2013-02-15 00:50:00,36.9,32.2,30.01,North,5,0.0,2.0,83,0.00,,BKN055,0.00,VWS V14.00,2013-02-15 05:50:00,
2013-02-15 01:00:00,37.0,32.3,30.01,North,9,0.0,0.0,83,0.00,,BKN055,0.00,VWS V14.00,2013-02-15 06:00:00,
2013-02-15 01:10:00,36.3,31.6,30.01,North,9,0.0,2.0,83,0.00,,BKN055,0.00,VWS V14.00,2013-02-15 06:10:00,
2013-02-15 01:20:00,35.4,30.8,30.01,North,9,0.0,0.0,83,0.00,,BKN055,0.00,VWS V14.00,2013-02-15 06:20:00,
2013-02-15 01:30:00,34.0,30.3,30.01,North,9,0.0,0.0,86,0.00,,BKN055,0.00,VWS V14.00,2013-02-15 06:30:00,
2013-02-15 01:40:00,33.2,30.3,30.01,North,9,0.0,1.0,89,0.00,,BKN055,0.00,VWS V14.00,2013-02-15 06:40:00,
2013-02-15 01:50:00,32.6,30.0,30.01,North,9,0.0,1.0,90,0.00,,BKN055,0.00,VWS V14.00,2013-02-15 06:50:00,
2013-02-15 02:00:00,32.1,29.8,30.01,North,9,0.0,0.0,91,0.00,,BKN055,0.00,VWS V14.00,2013-02-15 07:00:00,
2013-02-15 02:10:00,31.5,29.5,30.00,North,9,3.0,3.0,92,0.00,,BKN055,0.00,VWS V14.00,2013-02-15 07:10:00,
2013-02-15 02:20:00,31.1,29.0,30.01,North,9,0.0,3.0,92,0.00,,BKN055,0.00,VWS V14.00,2013-02-15 07:20:00,
2013-02-15 02:30:00,31.0,29.0,30.01,North,9,0.0,0.0,92,0.00,,BKN055,0.00,VWS V14.00,2013-02-15 07:30:00,
2013-02-15 02:40:00,31.0,29.2,30.01,North,9,0.0,0.0,93,0.00,,BKN055,0.00,VWS V14.00,2013-02-15 07:40:00,
2013-02-15 02:50:00,31.0,29.0,30.01,North,350,2.0,3.0,92,0.00,,BKN055,0.00,VWS V14.00,2013-02-15 07:50:00,
2013-02-15 03:00:00,30.7,28.7,30.01,NNW,345,1.0,4.0,92,0.00,,BKN055,0.00,VWS V14.00,2013-02-15 08:00:00,
2013-02-15 03:10:00,30.6,28.6,30.01,NNW,345,0.0,2.0,92,0.00,,BKN055,0.00,VWS V14.00,2013-02-15 08:10:00,
2013-02-15 03:20:00,30.5,28.5,30.02,NNW,345,0.0,0.0,92,0.00,,BKN055,0.00,VWS V14.00,2013-02-15 08:20:00,
2013-02-15 03:30:00,30.5,28.7,30.01,NNW,345,0.0,0.0,93,0.00,,BKN055,0.00,VWS V14.00,2013-02-15 08:30:00,
2013-02-15 03:40:00,30.6,28.8,30.01,NNW,345,2.0,3.0,93,0.00,,BKN055,0.00,VWS V14.00,2013-02-15 08:40:00,
2013-02-15 03:50:00,30.6,28.8,30.02,NNW,344,0.0,4.0,93,0.00,,BKN055,0.00,VWS V14.00,2013-02-15 08:50:00,
2013-02-15 04:00:00,30.7,28.9,30.01,NNW,344,0.0,0.0,93,0.00,,BKN055,0.00,VWS V14.00,2013-02-15 09:00:00,
2013-02-15 04:10:00,30.7,28.7,30.01,NNW,345,2.0,4.0,92,0.00,,BKN055,0.00,VWS V14.00,2013-02-15 09:10:00,
2013-02-15 04:20:00,30.8,28.8,30.02,NNW,344,0.0,3.0,92,0.00,,BKN055,0.00,VWS V14.00,2013-02-15 09:20:00,
2013-02-15 04:30:00,31.0,29.0,30.02,NNW,334,2.0,4.0,92,0.00,,BKN055,0.00,VWS V14.00,2013-02-15 09:30:00,
2013-02-15 04:40:00,31.0,28.7,30.02,NNW,340,3.0,4.0,91,0.00,,BKN055,0.00,VWS V14.00,2013-02-15 09:40:00,
2013-02-15 04:50:00,30.9,28.6,30.02,NNW,338,2.0,5.0,91,0.00,,BKN055,0.00,VWS V14.00,2013-02-15 09:50:00,
2013-02-15 05:00:00,30.8,28.5,30.02,NNW,338,0.0,4.0,91,0.00,,BKN055,0.00,VWS V14.00,2013-02-15 10:00:00,
2013-02-15 05:10:00,30.6,28.3,30.02,NNW,338,1.0,3.0,91,0.00,,BKN055,0.00,VWS V14.00,2013-02-15 10:10:00,
2013-02-15 05:20:00,30.5,28.5,30.02,NNW,338,0.0,1.0,92,0.00,,BKN055,0.00,VWS V14.00,2013-02-15 10:20:00,
2013-02-15 05:30:00,30.4,28.4,30.03,NNW,338,0.0,0.0,92,0.00,,BKN055,0.00,VWS V14.00,2013-02-15 10:30:00,
2013-02-15 05:40:00,30.3,28.3,30.03,NNW,337,3.0,3.0,92,0.00,,BKN055,0.00,VWS V14.00,2013-02-15 10:40:00,
2013-02-15 05:50:00,30.3,28.5,30.03,NNW,338,0.0,4.0,93,0.00,,BKN055,0.00,VWS V14.00,2013-02-15 10:50:00,
2013-02-15 06:00:00,30.4,28.6,30.04,NNW,337,2.0,3.0,93,0.00,,BKN055,0.00,VWS V14.00,2013-02-15 11:00:00,
2013-02-15 06:10:00,30.5,28.5,30.04,NNW,338,2.0,4.0,92,0.00,,BKN055,0.00,VWS V14.00,2013-02-15 11:10:00,
2013-02-15 06:20:00,30.5,28.5,30.05,NNW,337,3.0,3.0,92,0.00,,BKN055,0.00,VWS V14.00,2013-02-15 11:20:00,
2013-02-15 06:30:00,30.4,28.4,30.04,NNW,337,1.0,4.0,92,0.00,,BKN055,0.00,VWS V14.00,2013-02-15 11:30:00,
2013-02-15 06:40:00,30.4,28.4,30.05,NNW,337,0.0,3.0,92,0.00,,BKN055,0.00,VWS V14.00,2013-02-15 11:40:00,
2013-02-15 06:50:00,30.4,28.4,30.05,NNW,337,0.0,2.0,92,0.00,,BKN055,0.00,VWS V14.00,2013-02-15 11:50:00,
2013-02-15 07:00:00,30.4,28.4,30.06,NNW,337,0.0,0.0,92,0.00,,BKN055,0.00,VWS V14.00,2013-02-15 12:00:00,
2013-02-15 07:10:00,30.4,28.4,30.06,NNW,337,0.0,3.0,92,0.00,,BKN055,0.00,VWS V14.00,2013-02-15 12:10:00,
2013-02-15 07:20:00,30.3,28.3,30.06,NNW,337,0.0,0.0,92,0.00,,BKN055,0.00,VWS V14.00,2013-02-15 12:20:00,
2013-02-15 07:30:00,30.2,28.2,30.06,NNW,337,0.0,0.0,92,0.00,,BKN055,0.00,VWS V14.00,2013-02-15 12:30:00,
2013-02-15 07:40:00,30.1,28.3,30.07,NNW,337,0.0,0.0,93,0.00,,BKN055,0.00,VWS V14.00,2013-02-15 12:40:00,
2013-02-15 07:50:00,30.1,28.3,30.07,NNW,337,2.0,2.0,93,0.00,,BKN055,0.00,VWS V14.00,2013-02-15 12:50:00,
2013-02-15 08:00:00,30.3,28.5,30.07,NNW,337,0.0,3.0,93,0.00,,BKN055,0.00,VWS V14.00,2013-02-15 13:00:00,
2013-02-15 08:10:00,30.5,28.7,30.08,NNW,337,1.0,3.0,93,0.00,,BKN055,0.00,VWS V14.00,2013-02-15 13:10:00,
2013-02-15 08:20:00,30.6,29.1,30.08,NNW,335,3.0,4.0,94,0.00,,BKN055,0.00,VWS V14.00,2013-02-15 13:20:00,
2013-02-15 08:30:00,30.7,28.9,30.09,NNW,337,2.0,4.0,93,0.00,,BKN055,0.00,VWS V14.00,2013-02-15 13:30:00,
2013-02-15 08:40:00,31.0,29.2,30.08,NNW,342,0.0,3.0,93,0.00,,BKN055,0.00,VWS V14.00,2013-02-15 13:40:00,
2013-02-15 08:50:00,31.5,29.7,30.09,NNW,341,0.0,3.0,93,0.00,,BKN055,0.00,VWS V14.00,2013-02-15 13:50:00,
2013-02-15 09:00:00,32.4,30.6,30.09,NNW,340,0.0,4.0,93,0.00,,BKN055,0.00,VWS V14.00,2013-02-15 14:00:00,
2013-02-15 09:10:00,33.2,31.4,30.10,NNW,340,0.0,3.0,93,0.00,,BKN055,0.00,VWS V14.00,2013-02-15 14:10:00,
2013-02-15 09:20:00,33.9,31.8,30.10,NNW,340,0.0,0.0,92,0.00,,BKN055,0.00,VWS V14.00,2013-02-15 14:20:00,
2013-02-15 09:30:00,34.9,32.5,30.10,NNE,16,0.0,3.0,91,0.00,,BKN055,0.00,VWS V14.00,2013-02-15 14:30:00,
2013-02-15 09:40:00,36.4,32.6,30.10,WNW,284,1.0,6.0,86,0.00,,BKN055,0.00,VWS V14.00,2013-02-15 14:40:00,
2013-02-15 09:50:00,37.1,32.7,30.10,NNE,19,0.0,3.0,84,0.00,,BKN055,0.00,VWS V14.00,2013-02-15 14:50:00,
2013-02-15 10:00:00,37.5,32.8,30.10,SSE,153,0.0,1.0,83,0.00,,BKN055,0.00,VWS V14.00,2013-02-15 15:00:00,
2013-02-15 10:10:00,37.9,32.6,30.09,WSW,243,2.0,5.0,81,0.00,,BKN055,0.00,VWS V14.00,2013-02-15 15:10:00,
2013-02-15 10:20:00,38.2,32.6,30.09,SW,217,0.0,5.0,80,0.00,,BKN055,0.00,VWS V14.00,2013-02-15 15:20:00,
2013-02-15 10:30:00,39.0,34.3,30.09,SW,223,0.0,4.0,83,0.00,,BKN055,0.00,VWS V14.00,2013-02-15 15:30:00,
2013-02-15 10:40:00,39.2,33.6,30.09,SSW,198,0.0,5.0,80,0.00,,BKN055,0.00,VWS V14.00,2013-02-15 15:40:00,
2013-02-15 10:50:00,39.0,33.0,30.09,WSW,238,0.0,11.0,79,0.00,,BKN055,0.00,VWS V14.00,2013-02-15 15:50:00,
2013-02-15 11:00:00,39.2,33.9,30.10,SSW,211,3.0,11.0,81,0.00,,BKN055,0.00,VWS V14.00,2013-02-15 16:00:00,
2013-02-15 11:10:00,39.2,33.2,30.09,SW,219,9.0,11.0,79,0.00,,BKN055,0.00,VWS V14.00,2013-02-15 16:10:00,
2013-02-15 11:20:00,39.7,33.7,30.09,WSW,248,4.0,9.0,79,0.00,,BKN055,0.00,VWS V14.00,2013-02-15 16:20:00,
2013-02-15 11:30:00,40.0,33.4,30.09,SW,219,5.0,13.0,77,0.00,,BKN055,0.00,VWS V14.00,2013-02-15 16:30:00,
2013-02-15 11:40:00,40.5,33.9,30.08,South,176,4.0,12.0,77,0.00,,BKN055,0.00,VWS V14.00,2013-02-15 16:40:00,
2013-02-15 11:50:00,40.9,33.9,30.09,WSW,244,4.0,13.0,76,0.00,,BKN055,0.00,VWS V14.00,2013-02-15 16:50:00,
2013-02-15 12:00:00,40.1,33.5,30.09,NW,315,3.0,14.0,77,0.00,,BKN055,0.00,VWS V14.00,2013-02-15 17:00:00,
2013-02-15 12:10:00,39.9,33.3,30.08,WSW,242,5.0,12.0,77,0.00,,BKN055,0.00,VWS V14.00,2013-02-15 17:10:00,
2013-02-15 12:20:00,40.2,33.2,30.08,West,275,3.0,6.0,76,0.00,,BKN055,0.00,VWS V14.00,2013-02-15 17:20:00,
2013-02-15 12:30:00,40.6,32.3,30.08,SW,232,2.0,9.0,72,0.00,,BKN055,0.00,VWS V14.00,2013-02-15 17:30:00,
2013-02-15 12:40:00,40.5,32.2,30.08,WNW,286,4.0,11.0,72,0.00,,BKN055,0.00,VWS V14.00,2013-02-15 17:40:00,
2013-02-15 12:50:00,40.5,32.5,30.08,WNW,292,0.0,7.0,73,0.00,,BKN055,0.00,VWS V14.00,2013-02-15 17:50:00,
2013-02-15 13:00:00,40.9,32.6,30.08,WNW,294,6.0,16.0,72,0.00,,BKN055,0.00,VWS V14.00,2013-02-15 18:00:00,
2013-02-15 13:10:00,41.2,32.5,30.08,WNW,285,6.0,15.0,71,0.00,,BKN055,0.00,VWS V14.00,2013-02-15 18:10:00,
2013-02-15 13:20:00,41.0,32.3,30.08,West,272,10.0,14.0,71,0.00,,BKN055,0.00,VWS V14.00,2013-02-15 18:20:00,
2013-02-15 13:30:00,41.3,32.3,30.08,West,261,9.0,11.0,70,0.00,,BKN055,0.00,VWS V14.00,2013-02-15 18:30:00,
2013-02-15 13:40:00,41.3,31.2,30.07,WNW,288,9.0,15.0,67,0.00,,BKN055,0.00,VWS V14.00,2013-02-15 18:40:00,
2013-02-15 13:50:00,41.1,31.0,30.07,West,260,4.0,16.0,67,0.00,,BKN055,0.00,VWS V14.00,2013-02-15 18:50:00,
2013-02-15 14:00:00,40.5,30.4,30.06,West,263,6.0,17.0,67,0.00,,BKN055,0.00,VWS V14.00,2013-02-15 19:00:00,
2013-02-15 14:10:00,42.2,34.2,30.06,West,259,3.0,14.0,73,0.00,,BKN055,0.00,VWS V14.00,2013-02-15 19:10:00,
2013-02-15 14:20:00,43.1,31.8,30.06,WNW,288,11.0,11.0,64,0.00,,BKN055,0.00,VWS V14.00,2013-02-15 19:20:00,
2013-02-15 14:30:00,42.5,30.0,30.06,SW,215,6.0,15.0,61,0.00,,BKN055,0.00,VWS V14.00,2013-02-15 19:30:00,
2013-02-15 14:40:00,41.9,29.9,30.06,WNW,299,4.0,15.0,62,0.00,,BKN055,0.00,VWS V14.00,2013-02-15 19:40:00,
2013-02-15 14:50:00,41.3,28.9,30.06,West,267,12.0,18.0,61,0.00,,BKN055,0.00,VWS V14.00,2013-02-15 19:50:00,
2013-02-15 15:00:00,42.0,30.3,30.06,WSW,257,5.0,14.0,63,0.00,,BKN055,0.00,VWS V14.00,2013-02-15 20:00:00,
2013-02-15 15:10:00,42.2,30.5,30.06,WSW,246,7.0,11.0,63,0.00,,BKN055,0.00,VWS V14.00,2013-02-15 20:10:00,
2013-02-15 15:20:00,42.6,28.9,30.06,West,263,5.0,20.0,58,0.00,,BKN055,0.00,VWS V14.00,2013-02-15 20:20:00,
2013-02-15 15:30:00,43.1,29.8,30.07,West,271,10.0,14.0,59,0.00,,BKN055,0.00,VWS V14.00,2013-02-15 20:30:00,
2013-02-15 15:40:00,42.6,28.9,30.07,WNW,302,11.0,16.0,58,0.00,,BKN055,0.00,VWS V14.00,2013-02-15 20:40:00,
2013-02-15 15:50:00,41.1,29.9,30.07,West,274,6.0,11.0,64,0.00,,BKN055,0.00,VWS V14.00,2013-02-15 20:50:00,
2013-02-15 16:00:00,40.7,29.5,30.08,West,267,3.0,9.0,64,0.00,,BKN055,0.00,VWS V14.00,2013-02-15 21:00:00,
2013-02-15 16:10:00,41.4,29.4,30.07,WSW,246,8.0,13.0,62,0.00,,BKN055,0.00,VWS V14.00,2013-02-15 21:10:00,
2013-02-15 16:20:00,40.2,30.9,30.08,North,351,7.0,16.0,69,0.00,,BKN055,0.00,VWS V14.00,2013-02-15 21:20:00,
2013-02-15 16:30:00,38.8,31.2,30.08,NW,325,3.0,18.0,74,0.00,,BKN055,0.00,VWS V14.00,2013-02-15 21:30:00,
2013-02-15 16:40:00,38.7,30.8,30.09,NW,312,2.0,15.0,73,0.00,,BKN055,0.00,VWS V14.00,2013-02-15 21:40:00,
2013-02-15 16:50:00,39.1,30.9,30.09,SW,233,5.0,12.0,72,0.00,,BKN055,0.00,VWS V14.00,2013-02-15 21:50:00,
2013-02-15 17:00:00,39.9,30.9,30.09,NW,326,1.0,12.0,70,0.00,,BKN055,0.00,VWS V14.00,2013-02-15 22:00:00,
2013-02-15 17:10:00,39.7,30.0,30.10,WNW,290,9.0,13.0,68,0.00,,BKN055,0.00,VWS V14.00,2013-02-15 22:10:00,
2013-02-15 17:20:00,38.9,29.6,30.10,North,360,6.0,16.0,69,0.00,,BKN055,0.00,VWS V14.00,2013-02-15 22:20:00,
2013-02-15 17:30:00,39.1,29.8,30.10,NNW,331,4.0,10.0,69,0.00,,BKN055,0.00,VWS V14.00,2013-02-15 22:30:00,
2013-02-15 17:40:00,38.9,29.2,30.10,NNW,337,7.0,10.0,68,0.00,,BKN055,0.00,VWS V14.00,2013-02-15 22:40:00,
2013-02-15 17:50:00,38.4,28.4,30.11,NNW,338,11.0,16.0,67,0.00,,BKN055,0.00,VWS V14.00,2013-02-15 22:50:00,
2013-02-15 18:00:00,37.5,27.5,30.11,NNW,331,11.0,17.0,67,0.00,,BKN055,0.00,VWS V14.00,2013-02-15 23:00:00,
2013-02-15 18:10:00,37.0,27.8,30.12,NW,319,10.0,18.0,69,0.00,,BKN055,0.00,VWS V14.00,2013-02-15 23:10:00,
2013-02-15 18:20:00,36.6,27.8,30.12,NNW,327,9.0,12.0,70,0.00,,BKN055,0.00,VWS V14.00,2013-02-15 23:20:00,
2013-02-15 18:30:00,36.2,28.1,30.12,NW,304,6.0,15.0,72,0.00,,BKN055,0.00,VWS V14.00,2013-02-15 23:30:00,
2013-02-15 18:40:00,35.9,27.4,30.13,NW,314,7.0,16.0,71,0.00,,BKN055,0.00,VWS V14.00,2013-02-15 23:40:00,
2013-02-15 18:50:00,35.5,27.7,30.14,WNW,285,12.0,16.0,73,0.00,,BKN055,0.00,VWS V14.00,2013-02-15 23:50:00,
2013-02-15 19:00:00,35.0,27.9,30.15,West,271,10.0,15.0,75,0.00,,BKN055,0.00,VWS V14.00,2013-02-16 00:00:00,
2013-02-15 19:10:00,34.4,28.0,30.15,WNW,284,4.0,18.0,77,0.00,,BKN055,0.00,VWS V14.00,2013-02-16 00:10:00,
2013-02-15 19:20:00,33.9,28.4,30.16,WNW,302,12.0,17.0,80,0.00,,BKN055,0.00,VWS V14.00,2013-02-16 00:20:00,
2013-02-15 19:30:00,33.6,28.4,30.16,NW,313,6.0,12.0,81,0.00,,BKN055,0.00,VWS V14.00,2013-02-16 00:30:00,
2013-02-15 19:40:00,33.4,27.6,30.17,NW,325,5.0,10.0,79,0.00,,BKN055,0.00,VWS V14.00,2013-02-16 00:40:00,
2013-02-15 19:50:00,33.2,27.1,30.17,WNW,301,5.0,10.0,78,0.00,,BKN055,0.00,VWS V14.00,2013-02-16 00:50:00,
2013-02-15 20:00:00,32.9,26.8,30.17,NNW,334,7.0,11.0,78,0.00,,BKN055,0.00,VWS V14.00,2013-02-16 01:00:00,
2013-02-15 20:10:00,32.3,26.5,30.17,NNW,333,5.0,9.0,79,0.00,,BKN055,0.00,VWS V14.00,2013-02-16 01:10:00,
2013-02-15 20:20:00,31.9,26.4,30.17,NNW,333,1.0,7.0,80,0.00,,BKN055,0.00,VWS V14.00,2013-02-16 01:20:00,
2013-02-15 20:30:00,31.5,26.4,30.17,NW,307,0.0,4.0,81,0.00,,BKN055,0.00,VWS V14.00,2013-02-16 01:30:00,
2013-02-15 20:40:00,31.0,26.2,30.17,NW,309,0.0,3.0,82,0.00,,BKN055,0.00,VWS V14.00,2013-02-16 01:40:00,
2013-02-15 20:50:00,30.7,26.2,30.17,NW,311,3.0,3.0,83,0.00,,BKN055,0.00,VWS V14.00,2013-02-16 01:50:00,
2013-02-15 21:00:00,30.5,26.0,30.17,NW,315,0.0,3.0,83,0.00,,BKN055,0.00,VWS V14.00,2013-02-16 02:00:00,
2013-02-15 21:10:00,29.9,25.7,30.17,NW,314,0.0,0.0,84,0.00,,BKN055,0.00,VWS V14.00,2013-02-16 02:10:00,
2013-02-15 21:20:00,29.4,25.5,30.17,NW,313,0.0,2.0,85,0.00,,BKN055,0.00,VWS V14.00,2013-02-16 02:20:00,
2013-02-15 21:30:00,28.9,25.0,30.17,NW,313,0.0,2.0,85,0.00,,BKN055,0.00,VWS V14.00,2013-02-16 02:30:00,
2013-02-15 21:40:00,28.4,24.8,30.17,NW,313,0.0,0.0,86,0.00,,BKN055,0.00,VWS V14.00,2013-02-16 02:40:00,
2013-02-15 21:50:00,28.0,24.4,30.17,NW,313,0.0,0.0,86,0.00,,BKN055,0.00,VWS V14.00,2013-02-16 02:50:00,
2013-02-15 22:00:00,27.7,24.6,30.17,NW,313,0.0,0.0,88,0.00,,BKN055,0.00,VWS V14.00,2013-02-16 03:00:00,
2013-02-15 22:10:00,27.3,24.2,30.17,NW,313,0.0,0.0,88,0.00,,BKN055,0.00,VWS V14.00,2013-02-16 03:10:00,
2013-02-15 22:20:00,27.0,24.2,30.17,NW,313,0.0,0.0,89,0.00,,BKN055,0.00,VWS V14.00,2013-02-16 03:20:00,
2013-02-15 22:30:00,26.7,23.9,30.18,NW,314,0.0,0.0,89,0.00,,BKN055,0.00,VWS V14.00,2013-02-16 03:30:00,
2013-02-15 22:40:00,26.3,23.5,30.17,NW,314,0.0,3.0,89,0.00,,BKN055,0.00,VWS V14.00,2013-02-16 03:40:00,
2013-02-15 22:50:00,25.9,23.4,30.17,NW,315,0.0,2.0,90,0.00,,BKN055,0.00,VWS V14.00,2013-02-16 03:50:00,
2013-02-15 23:00:00,25.8,23.5,30.17,NW,314,0.0,0.0,91,0.00,,BKN055,0.00,VWS V14.00,2013-02-16 04:00:00,
2013-02-15 23:10:00,25.7,23.2,30.17,NW,315,0.0,0.0,90,0.00,,BKN055,0.00,VWS V14.00,2013-02-16 04:10:00,
2013-02-15 23:20:00,25.5,23.2,30.17,NW,315,0.0,0.0,91,0.00,,BKN055,0.00,VWS V14.00,2013-02-16 04:20:00,
2013-02-15 23:30:00,25.3,23.0,30.17,NW,317,2.0,2.0,91,0.00,,BKN055,0.00,VWS V14.00,2013-02-16 04:30:00,
2013-02-15 23:40:00,24.9,22.6,30.17,NW,317,2.0,3.0,91,0.00,,BKN055,0.00,VWS V14.00,2013-02-16 04:40:00,
2013-02-15 23:50:00,24.7,22.5,30.17,NW,318,1.0,3.0,91,0.00,,BKN055,0.00,VWS V14.00,2013-02-16 04:50:00,